Terminal Aerodrome Forecast
Issued by NWS

Home | Current Version | Previous Version | Graphics & Text | Print | Product List | Glossary On
Versions: 1 2 3 4 5 6 7 8 9 10 11 12 13 14 15 16 17 18 19 20 21 22 23 24 25 26 27 28 29 30 31
000
FTUS43 KLOT 220603 AAB
TAFORD
TAF AMD
KORD 220603Z 2206/2312 21013G25KT P6SM -RA SCT110 OVC160
     FM220730 21008KT P6SM SCT150 BKN250
     FM221200 26005KT P6SM BKN035
      TEMPO 2212/2214 4SM BR BKN020
     FM222100 08008KT P6SM SCT040 PROB30 2222/2302 3SM TSRA OVC040CB
     FM230200 14004KT 5SM HZ SCT040 SCT250=

USA.gov is the U.S. government's official web portal to all federal, state and local government web resources and services.